Samedan Airport LSZS

Flugplatz Daten

Name: Samedan Airport

Ident: LSZS

Lat: 46,53409958

Long: 9,884110451

Platzhöhe: 5600 ft

IataCode: SMV

City:

Metar

2022/08/10 20:20
LSZS 102020Z AUTO VRB01KT 9999 //////TCU 13/10 Q1026

Taf

2022/05/09 03:30
TAF LSZS 090225Z 0903/0912 05003KT 9999 OVC025 TX11/0912Z PROB30
TEMPO 0904/0907 4500 BR BKN005
BECMG 0910/0912 22008KT

Webcams

Samedan Flugplatz
Gewünschte Webcam nicht vorhanden? Dann fügen Sie eine hinzu. Sie wird dann so schnell wie möglich freigeschaltet
Url: Title: